aviador You're here:

KSPW Decoded Metar

SPENCER in IA, USA
Report Time2017-12-16 17:53:00
UTC Time2017-12-16 18:51:42
Flight Rules vfr VFR
Wind340° at 06 kt
W.Decomp.*RWY 36: 5.4 kt HW 2.5 kt LCW
RWY 30: 4.9 kt HW 3.4 kt RCW
W.Rank340° ranks 12
Current wind is below 340° avg. (11.5)
Visibility9999 m
Phenomena:N/A
Clouds:N/A
Expected CloudBase > 3,600 ft AGL from Temp-Dew spread
CeilingNone
Temp07°C (ISA -5)
Dew Point-2°C (53% RH)
AAT2.6°C
QNH1010 hPa
Density Alt856 ft
Elevation1,322 ft
Report Wrong Elevation
Raw Report
METAR KSPW 161753Z AUTO 34006KT 10SM CLR 07/M02 A2984 RMK AO2 SLP115
T00671017 10072 21056 50023=

Extra information for KSPW:More info

Metar Taf Metar & Taf Last 4 Metars F.Rules Stats Wind Profile Meteogram Temp Stats Airport Information Weather charts Add Link Nearby VenuesMetar ALERT Operation Metar Decoded Social comments

AIRNAV info for KSPW